Latest Weather Observations for Esperance Harbour

IDW60801

Issued at 3:32 am WST Thursday 2 July 2015 (issued every 30 minutes, with the page automatically refreshed every 10 minutes)

About weather observations | Map of weather stations | Latest weather observations for WA | Other Formats
Station Details ID: 109504 Name: ESPERANCE NTC AWS Lat: -33.87 Lon: 121.90 Height: 0.0 m
Data from the previous 72 hours. | See also: Recent months for locations in Western Australia
Date/Time
WST
Temp
°C
App
Temp
°C
Dew
Point
Rel
Hum
%
Delta-T
°C
Wind Press
QNH
hPa
Press
MSL
hPa
Rain
since 9 am
mm
Dir
 
Spd
km/h
Gust
km/h
Spd
kts
Gust
kts
02/03:30am 13.9 - - - - - - - - - 1024.3 1024.2 -
02/03:00am 13.7 - - - - - - - - - 1024.4 1024.3 -
02/02:30am 13.3 - - - - - - - - - 1024.6 1024.5 -
02/02:00am 13.7 - - - - - - - - - 1025.0 1024.9 -
02/01:30am 14.2 - - - - - - - - - 1025.2 1025.1 -
02/01:00am 14.5 - - - - - - - - - 1025.5 1025.4 -
02/12:30am 14.1 - - - - - - - - - 1025.7 1025.6 -
02/12:00am 14.7 - - - - - - - - - 1025.2 1025.1 -
 
Date/Time
WST
Temp
°C
App
Temp
°C
Dew
Point
Rel
Hum
%
Delta-T
°C
Wind Press
QNH
hPa
Press
MSL
hPa
Rain
since 9 am
mm
Dir
 
Spd
km/h
Gust
km/h
Spd
kts
Gust
kts
01/11:30pm 14.9 - - - - - - - - - 1025.4 1025.3 -
01/11:00pm 14.7 - - - - - - - - - 1025.7 1025.6 -
01/10:30pm 14.5 - - - - - - - - - 1026.1 1026.0 -
01/10:00pm 14.3 - - - - - - - - - 1026.0 1025.9 -
01/09:30pm 15.0 - - - - - - - - - 1026.0 1025.9 -
01/09:00pm 15.1 - - - - - - - - - 1026.2 1026.1 -
01/08:30pm 15.8 - - - - - - - - - 1026.3 1026.2 -
01/08:00pm 16.4 - - - - - - - - - 1026.1 1026.0 -
01/07:30pm 17.1 - - - - - - - - - 1026.0 1025.9 -
01/07:00pm 16.8 - - - - - - - - - 1025.9 1025.8 -
01/06:30pm 17.1 - - - - - - - - - 1025.4 1025.3 -
01/06:00pm 17.1 - - - - - - - - - 1025.2 1025.1 -
01/05:30pm 16.9 - - - - - - - - - 1025.0 1024.9 -
01/05:00pm 17.6 - - - - - - - - - 1024.8 1024.7 -
01/04:30pm 18.3 - - - - - - - - - 1024.7 1024.6 -
01/04:00pm 19.5 - - - - - - - - - 1024.8 1024.7 -
01/03:30pm 19.8 - - - - - - - - - 1024.7 1024.6 -
01/03:00pm 19.5 - - - - - - - - - 1024.6 1024.5 -
01/02:30pm 20.0 - - - - - - - - - 1024.5 1024.4 -
01/02:00pm 21.1 - - - - - - - - - 1024.3 1024.2 -
01/01:30pm 20.3 - - - - - - - - - 1024.4 1024.3 -
01/01:00pm 19.9 - - - - - - - - - 1024.5 1024.4 -
01/12:30pm 19.3 - - - - - - - - - 1024.6 1024.5 -
01/12:00pm 18.9 - - - - - - - - - 1025.2 1025.1 -
01/11:30am 18.7 - - - - - - - - - 1025.7 1025.6 -
01/11:00am 17.8 - - - - - - - - - 1026.0 1025.9 -
01/10:30am 17.0 - - - - - - - - - 1026.2 1026.1 -
01/10:00am 16.5 - - - - - - - - - 1026.6 1026.5 -
01/09:30am 15.2 - - - - - - - - - 1026.6 1026.5 -
01/09:00am 14.6 - - - - - - - - - 1026.5 1026.4 -
01/08:30am 14.4 - - - - - - - - - 1026.0 1025.9 -
01/08:00am 14.1 - - - - - - - - - 1026.2 1026.1 -
01/07:30am 13.8 - - - - - - - - - 1025.8 1025.7 -
01/07:00am 13.8 - - - - - - - - - 1025.1 1025.0 -
01/06:30am 13.7 - - - - - - - - - 1024.8 1024.7 -
01/06:00am 13.8 - - - - - - - - - 1024.6 1024.5 -
01/05:30am 13.8 - - - - - - - - - 1024.4 1024.3 -
01/05:00am 13.8 - - - - - - - - - 1024.5 1024.4 -
01/04:30am 13.8 - - - - - - - - - 1024.2 1024.1 -
01/04:00am 13.9 - - - - - - - - - 1024.2 1024.1 -
01/03:30am 14.3 - - - - - - - - - 1024.2 1024.1 -
01/03:00am 14.3 - - - - - - - - - 1024.3 1024.2 -
01/02:30am 14.3 - - - - - - - - - 1024.7 1024.6 -
01/02:00am 14.0 - - - - - - - - - 1024.6 1024.5 -
01/01:30am 14.5 - - - - - - - - - 1024.1 1024.0 -
01/01:00am 14.2 - - - - - - - - - 1024.6 1024.5 -
01/12:30am 13.9 - - - - - - - - - 1024.5 1024.4 -
01/12:00am 14.3 - - - - - - - - - 1024.6 1024.5 -
 
Date/Time
WST
Temp
°C
App
Temp
°C
Dew
Point
Rel
Hum
%
Delta-T
°C
Wind Press
QNH
hPa
Press
MSL
hPa
Rain
since 9 am
mm
Dir
 
Spd
km/h
Gust
km/h
Spd
kts
Gust
kts
30/11:30pm 14.3 - - - - - - - - - 1024.8 1024.7 -
30/11:00pm 15.0 - - - - - - - - - 1024.7 1024.6 -
30/10:30pm 15.1 - - - - - - - - - 1025.0 1024.9 -
30/10:00pm 15.0 - - - - - - - - - 1024.8 1024.7 -
30/09:30pm 15.0 - - - - - - - - - 1025.0 1024.9 -
30/09:00pm 14.7 - - - - - - - - - 1025.2 1025.1 -
30/08:30pm 15.0 - - - - - - - - - 1025.2 1025.1 -
30/08:00pm 15.2 - - - - - - - - - 1025.1 1025.0 -
30/07:30pm 15.8 - - - - - - - - - 1025.1 1025.0 -
30/07:00pm 15.9 - - - - - - - - - 1025.1 1025.0 -
30/06:30pm 16.2 - - - - - - - - - 1024.9 1024.8 -
30/06:00pm 16.5 - - - - - - - - - 1024.5 1024.4 -
30/05:30pm 17.3 - - - - - - - - - 1024.4 1024.3 -
30/05:00pm 17.7 - - - - - - - - - 1024.0 1023.9 -
30/04:30pm 18.3 - - - - - - - - - 1023.6 1023.5 -
30/04:00pm 19.1 - - - - - - - - - 1023.6 1023.5 -
30/03:30pm 19.8 - - - - - - - - - 1023.7 1023.6 -
30/03:00pm 19.9 - - - - - - - - - 1023.9 1023.8 -
30/02:30pm 19.7 - - - - - - - - - 1024.1 1024.0 -
30/02:00pm 19.7 - - - - - - - - - 1024.1 1024.0 -
30/01:30pm 19.4 - - - - - - - - - 1024.1 1024.0 -
30/01:00pm 19.5 - - - - - - - - - 1024.5 1024.4 -
30/12:30pm 19.3 - - - - - - - - - 1024.6 1024.5 -
30/12:00pm 18.8 - - - - - - - - - 1025.0 1024.9 -
30/11:30am 18.2 - - - - - - - - - 1025.3 1025.2 -
30/11:00am 17.7 - - - - - - - - - 1025.8 1025.7 -
30/10:30am 17.0 - - - - - - - - - 1026.2 1026.1 -
30/10:00am 16.0 - - - - - - - - - 1026.6 1026.5 -
30/09:30am 14.8 - - - - - - - - - 1026.7 1026.6 -
30/09:00am 13.1 - - - - - - - - - 1026.7 1026.6 -
30/08:30am 11.5 - - - - - - - - - 1026.7 1026.6 -
30/08:00am 10.0 - - - - - - - - - 1026.7 1026.6 -
30/07:30am 9.4 - - - - - - - - - 1026.4 1026.3 -
30/07:00am 9.1 - - - - - - - - - 1025.9 1025.8 -
30/06:30am 9.4 - - - - - - - - - 1025.8 1025.7 -
30/06:00am 9.7 - - - - - - - - - 1025.5 1025.4 -
30/05:30am 9.7 - - - - - - - - - 1025.4 1025.3 -
30/05:00am 9.6 - - - - - - - - - 1025.3 1025.2 -
30/04:30am 8.9 - - - - - - - - - 1025.4 1025.3 -
30/04:00am 9.8 - - - - - - - - - 1025.5 1025.4 -
30/03:30am 10.3 - - - - - - - - - 1025.3 1025.2 -
30/03:00am 10.2 - - - - - - - - - 1025.3 1025.2 -
30/02:30am 10.6 - - - - - - - - - 1025.3 1025.2 -
30/02:00am 11.2 - - - - - - - - - 1025.6 1025.5 -
30/01:30am 11.4 - - - - - - - - - 1025.7 1025.6 -
30/01:00am 11.7 - - - - - - - - - 1025.7 1025.6 -
30/12:30am 11.2 - - - - - - - - - 1025.8 1025.7 -
30/12:00am 10.3 - - - - - - - - - 1025.9 1025.8 -
 
Date/Time
WST
Temp
°C
App
Temp
°C
Dew
Point
Rel
Hum
%
Delta-T
°C
Wind Press
QNH
hPa
Press
MSL
hPa
Rain
since 9 am
mm
Dir
 
Spd
km/h
Gust
km/h
Spd
kts
Gust
kts
29/11:30pm 10.6 - - - - - - - - - 1026.0 1025.9 -
29/11:00pm 10.9 - - - - - - - - - 1026.0 1025.9 -
29/10:30pm 11.6 - - - - - - - - - 1026.1 1026.0 -
29/10:00pm 11.8 - - - - - - - - - 1026.2 1026.1 -
29/09:30pm 12.2 - - - - - - - - - 1026.5 1026.4 -
29/09:00pm 12.7 - - - - - - - - - 1026.5 1026.4 -
29/08:30pm 13.0 - - - - - - - - - 1026.7 1026.6 -
29/08:00pm 13.4 - - - - - - - - - 1026.8 1026.7 -
29/07:30pm 13.8 - - - - - - - - - 1026.9 1026.8 -
29/07:00pm 14.2 - - - - - - - - - 1026.8 1026.7 -
29/06:30pm 14.8 - - - - - - - - - 1026.9 1026.8 -
29/06:00pm 15.6 - - - - - - - - - 1026.7 1026.6 -
29/05:30pm 16.3 - - - - - - - - - 1026.4 1026.3 -
29/05:00pm 16.8 - - - - - - - - - 1026.3 1026.2 -
29/04:30pm 17.3 - - - - - - - - - 1026.2 1026.1 -
29/04:00pm 17.9 - - - - - - - - - 1026.3 1026.2 -
29/03:30pm 18.2 - - - - - - - - - 1026.3 1026.2 -
29/03:00pm 18.4 - - - - - - - - - 1026.4 1026.3 -
29/02:30pm 18.3 - - - - - - - - - 1026.3 1026.2 -
29/02:00pm 18.3 - - - - - - - - - 1026.5 1026.4 -
29/01:30pm 18.1 - - - - - - - - - 1026.8 1026.7 -
29/01:00pm 17.8 - - - - - - - - - 1027.0 1026.9 -
29/12:30pm 17.6 - - - - - - - - - 1027.5 1027.4 -
29/12:00pm 17.1 - - - - - - - - - 1028.0 1027.9 -
29/11:30am 16.7 - - - - - - - - - 1028.5 1028.4 -
29/11:00am 16.3 - - - - - - - - - 1028.8 1028.7 -
29/10:30am 15.8 - - - - - - - - - 1029.2 1029.1 -
29/10:00am 14.8 - - - - - - - - - 1029.5 1029.4 -
29/09:30am 13.6 - - - - - - - - - 1029.6 1029.5 -
29/09:00am 13.3 - - - - - - - - - 1029.5 1029.4 -
29/08:30am 12.9 - - - - - - - - - 1029.2 1029.1 -
29/08:00am 12.3 - - - - - - - - - 1029.2 1029.1 -
29/07:30am 12.7 - - - - - - - - - 1029.1 1029.0 -
29/07:00am 13.0 - - - - - - - - - 1028.9 1028.8 -
29/06:30am 12.7 - - - - - - - - - 1028.9 1028.8 -
29/06:00am 12.8 - - - - - - - - - 1029.0 1028.9 -
29/05:30am 12.8 - - - - - - - - - 1029.0 1028.9 -
29/05:00am 12.9 - - - - - - - - - 1028.9 1028.8 -
29/04:30am 13.4 - - - - - - - - - 1029.0 1028.9 -
29/04:00am 13.2 - - - - - - - - - 1028.9 1028.8 -

Other Formats:

Comma delimited format used in spreadsheet applications
http://www.bom.gov.au/fwo/IDW60801/IDW60801.95648.axf

JavaScript Object Notation format (JSON) in row-major order
http://www.bom.gov.au/fwo/IDW60801/IDW60801.95648.json